Terminal Aerodrome Forecast
Issued by NWS Wilmington, NC

Home | Current Version | Previous Version | Text Only | Print | Product List | Glossary On
Versions: 1 2 3 4 5 6 7 8 9 10 11 12 13 14 15 16 17 18
334
FTUS42 KILM 100523
TAFLBT
TAF
KLBT 100523Z 1006/1106 30010G14KT P6SM OVC060
     FM100900 28007KT P6SM SCT060
     FM101400 27015G23KT P6SM SCT050 SCT100
     FM110000 28008KT P6SM SKC=

USA.gov is the U.S. government's official web portal to all federal, state and local government web resources and services.